To NAV CANADA Home Page Login to a new session Search on AWWS site Feedback and Comments Disclaimer Vers la page française équivalente Tips FAQ What's new on the site To the Forecasts and Observations / NOTAM section To "File a Flight Plan" website Publications and other links Update of the User's profile FIC Telephone Numbers My Weather Data Folder Route Weather Data Regional Weather Data Local Weather Data To the Forecasts and Observations / NOTAM section
Request Generated 03/23/2017 at 00:07:45 UTC . Weather information available at that time is displayed.

METAR/TAF

CLYDE RIVER/NU    (show WxCam)

METAR CYCY 230000Z AUTO 29016KT 9SM CLR M27/M30 A2961 RMK SLP033=
METAR CYCY 222300Z 29015KT 25SM IC DRSN SCT250 M26/M30 A2962 RMK CI3
-23.8/-26.2/M/24 TRACE LOOSE LAST STFD OB/NEXT 231500Z SLP035=
METAR CYCY 222200Z 30016KT 25SM IC DRSN FEW030 SCT250 M25/M29 A2962
RMK SC1CI3 SC TR SLP037=

TAF CYCY 221838Z 2219/2307 30012KT P6SM FEW250
RMK FCST BASED ON AUTO OBS. NXT FCST BY 230100Z=
Your time UTC time
Weather data provided by Environment Canada and NAV CANADA